sensor_id;sensor_type;location;lat;lon;timestamp;temperature;humidity
52387;DHT22;38317;53.084;6.960;2023-07-02T00:00:03;16.20;99.90
52387;DHT22;38317;53.084;6.960;2023-07-02T00:02:30;16.20;99.90
52387;DHT22;38317;53.084;6.960;2023-07-02T00:04:56;16.10;99.90
52387;DHT22;38317;53.084;6.960;2023-07-02T00:07:22;16.10;99.90
52387;DHT22;38317;53.084;6.960;2023-07-02T00:09:48;16.10;99.90
52387;DHT22;38317;53.084;6.960;2023-07-02T00:12:14;16.00;99.90
52387;DHT22;38317;53.084;6.960;2023-07-02T00:14:39;16.00;99.90
52387;DHT22;38317;53.084;6.960;2023-07-02T00:17:05;16.00;99.90
52387;DHT22;38317;53.084;6.960;2023-07-02T00:19:31;16.00;99.90
52387;DHT22;38317;53.084;6.960;2023-07-02T00:21:58;16.00;99.90
52387;DHT22;38317;53.084;6.960;2023-07-02T00:24:23;15.90;99.90
52387;DHT22;38317;53.084;6.960;2023-07-02T00:26:49;15.90;99.90
52387;DHT22;38317;53.084;6.960;2023-07-02T00:29:15;15.90;99.90
52387;DHT22;38317;53.084;6.960;2023-07-02T00:31:41;15.90;99.90
52387;DHT22;38317;53.084;6.960;2023-07-02T00:34:06;15.80;99.90
52387;DHT22;38317;53.084;6.960;2023-07-02T00:36:32;15.80;99.90
52387;DHT22;38317;53.084;6.960;2023-07-02T00:38:58;15.80;99.90
52387;DHT22;38317;53.084;6.960;2023-07-02T00:41:25;15.80;99.90
52387;DHT22;38317;53.084;6.960;2023-07-02T00:43:50;15.70;99.90
52387;DHT22;38317;53.084;6.960;2023-07-02T00:46:20;15.70;99.90
52387;DHT22;38317;53.084;6.960;2023-07-02T00:48:54;15.70;99.90
52387;DHT22;38317;53.084;6.960;2023-07-02T00:51:25;15.70;99.90
52387;DHT22;38317;53.084;6.960;2023-07-02T00:53:52;15.70;99.90
52387;DHT22;38317;53.084;6.960;2023-07-02T00:56:18;15.60;99.90
52387;DHT22;38317;53.084;6.960;2023-07-02T00:58:46;15.60;99.90
52387;DHT22;38317;53.084;6.960;2023-07-02T01:01:15;15.50;99.90
52387;DHT22;38317;53.084;6.960;2023-07-02T01:03:53;15.50;99.90
52387;DHT22;38317;53.084;6.960;2023-07-02T01:06:23;15.50;99.90
52387;DHT22;38317;53.084;6.960;2023-07-02T01:08:56;15.40;99.90
52387;DHT22;38317;53.084;6.960;2023-07-02T01:11:27;15.40;99.90
52387;DHT22;38317;53.084;6.960;2023-07-02T01:16:38;15.30;99.90
52387;DHT22;38317;53.084;6.960;2023-07-02T01:19:13;15.40;99.90
52387;DHT22;38317;53.084;6.960;2023-07-02T01:21:44;15.30;99.90
52387;DHT22;38317;53.084;6.960;2023-07-02T01:24:12;15.30;99.90
52387;DHT22;38317;53.084;6.960;2023-07-02T01:26:40;15.20;99.90
52387;DHT22;38317;53.084;6.960;2023-07-02T01:29:19;15.20;99.90
52387;DHT22;38317;53.084;6.960;2023-07-02T01:31:46;15.20;99.90
52387;DHT22;38317;53.084;6.960;2023-07-02T01:34:13;15.10;99.90
52387;DHT22;38317;53.084;6.960;2023-07-02T01:36:41;15.10;99.90
52387;DHT22;38317;53.084;6.960;2023-07-02T01:39:08;15.00;99.90
52387;DHT22;38317;53.084;6.960;2023-07-02T01:41:54;15.00;99.90
52387;DHT22;38317;53.084;6.960;2023-07-02T01:44:21;15.00;99.90
52387;DHT22;38317;53.084;6.960;2023-07-02T01:46:48;14.90;99.90
52387;DHT22;38317;53.084;6.960;2023-07-02T01:49:18;14.90;99.90
52387;DHT22;38317;53.084;6.960;2023-07-02T01:51:54;14.80;99.90
52387;DHT22;38317;53.084;6.960;2023-07-02T01:54:23;14.70;99.90
52387;DHT22;38317;53.084;6.960;2023-07-02T01:56:49;14.70;99.90
52387;DHT22;38317;53.084;6.960;2023-07-02T01:59:15;14.60;99.90
52387;DHT22;38317;53.084;6.960;2023-07-02T02:01:42;14.60;99.90
52387;DHT22;38317;53.084;6.960;2023-07-02T02:04:09;14.50;99.90
52387;DHT22;38317;53.084;6.960;2023-07-02T02:06:35;14.50;99.90
52387;DHT22;38317;53.084;6.960;2023-07-02T02:09:01;14.40;99.90
52387;DHT22;38317;53.084;6.960;2023-07-02T02:11:38;14.40;99.90
52387;DHT22;38317;53.084;6.960;2023-07-02T02:14:04;14.30;99.90
52387;DHT22;38317;53.084;6.960;2023-07-02T02:16:29;14.30;99.90
52387;DHT22;38317;53.084;6.960;2023-07-02T02:18:55;14.30;99.90
52387;DHT22;38317;53.084;6.960;2023-07-02T02:21:21;14.20;99.90
52387;DHT22;38317;53.084;6.960;2023-07-02T02:23:47;14.20;99.90
52387;DHT22;38317;53.084;6.960;2023-07-02T02:26:13;14.20;99.90
52387;DHT22;38317;53.084;6.960;2023-07-02T02:28:40;14.20;99.90
52387;DHT22;38317;53.084;6.960;2023-07-02T02:31:06;14.10;99.90
52387;DHT22;38317;53.084;6.960;2023-07-02T02:33:33;14.10;99.90
52387;DHT22;38317;53.084;6.960;2023-07-02T02:35:59;14.00;99.90
52387;DHT22;38317;53.084;6.960;2023-07-02T02:38:24;14.00;99.90
52387;DHT22;38317;53.084;6.960;2023-07-02T02:40:50;14.00;99.90
52387;DHT22;38317;53.084;6.960;2023-07-02T02:43:16;13.90;99.90
52387;DHT22;38317;53.084;6.960;2023-07-02T02:45:44;13.90;99.90
52387;DHT22;38317;53.084;6.960;2023-07-02T02:48:10;13.90;99.90
52387;DHT22;38317;53.084;6.960;2023-07-02T02:50:37;13.90;99.90
52387;DHT22;38317;53.084;6.960;2023-07-02T02:53:07;13.80;99.90
52387;DHT22;38317;53.084;6.960;2023-07-02T02:55:34;13.80;99.90
52387;DHT22;38317;53.084;6.960;2023-07-02T02:57:59;13.80;99.90
52387;DHT22;38317;53.084;6.960;2023-07-02T03:00:25;13.80;99.90
52387;DHT22;38317;53.084;6.960;2023-07-02T03:02:51;13.80;99.90
52387;DHT22;38317;53.084;6.960;2023-07-02T03:05:16;13.80;99.90
52387;DHT22;38317;53.084;6.960;2023-07-02T03:07:42;13.70;99.90
52387;DHT22;38317;53.084;6.960;2023-07-02T03:10:08;13.60;99.90
52387;DHT22;38317;53.084;6.960;2023-07-02T03:12:34;13.60;99.90
52387;DHT22;38317;53.084;6.960;2023-07-02T03:15:00;13.60;99.90
52387;DHT22;38317;53.084;6.960;2023-07-02T03:17:26;13.60;99.90
52387;DHT22;38317;53.084;6.960;2023-07-02T03:19:51;13.50;99.90
52387;DHT22;38317;53.084;6.960;2023-07-02T03:22:17;13.50;99.90
52387;DHT22;38317;53.084;6.960;2023-07-02T03:24:43;13.50;99.90
52387;DHT22;38317;53.084;6.960;2023-07-02T03:27:09;13.40;99.90
52387;DHT22;38317;53.084;6.960;2023-07-02T03:29:35;13.40;99.90
52387;DHT22;38317;53.084;6.960;2023-07-02T03:32:01;13.40;99.90
52387;DHT22;38317;53.084;6.960;2023-07-02T03:34:27;13.40;99.90
52387;DHT22;38317;53.084;6.960;2023-07-02T03:36:53;13.40;99.90
52387;DHT22;38317;53.084;6.960;2023-07-02T03:39:19;13.40;99.90
52387;DHT22;38317;53.084;6.960;2023-07-02T03:41:45;13.40;99.90
52387;DHT22;38317;53.084;6.960;2023-07-02T03:44:11;13.40;99.90
52387;DHT22;38317;53.084;6.960;2023-07-02T03:46:37;13.40;99.90
52387;DHT22;38317;53.084;6.960;2023-07-02T03:49:03;13.30;99.90
52387;DHT22;38317;53.084;6.960;2023-07-02T03:51:30;13.30;99.90
52387;DHT22;38317;53.084;6.960;2023-07-02T03:53:55;13.30;99.90
52387;DHT22;38317;53.084;6.960;2023-07-02T03:56:21;13.30;99.90
52387;DHT22;38317;53.084;6.960;2023-07-02T03:58:47;13.30;99.90
52387;DHT22;38317;53.084;6.960;2023-07-02T04:01:13;13.40;99.90
52387;DHT22;38317;53.084;6.960;2023-07-02T04:03:38;13.40;99.90
52387;DHT22;38317;53.084;6.960;2023-07-02T04:06:04;13.30;99.90
52387;DHT22;38317;53.084;6.960;2023-07-02T04:08:33;13.30;99.90
52387;DHT22;38317;53.084;6.960;2023-07-02T04:10:59;13.30;99.90
52387;DHT22;38317;53.084;6.960;2023-07-02T04:13:25;13.30;99.90
52387;DHT22;38317;53.084;6.960;2023-07-02T04:15:51;13.30;99.90
52387;DHT22;38317;53.084;6.960;2023-07-02T04:18:17;13.30;99.90
52387;DHT22;38317;53.084;6.960;2023-07-02T04:20:42;13.30;99.90
52387;DHT22;38317;53.084;6.960;2023-07-02T04:23:08;13.40;99.90
52387;DHT22;38317;53.084;6.960;2023-07-02T04:25:34;13.30;99.90
52387;DHT22;38317;53.084;6.960;2023-07-02T04:27:59;13.30;99.90
52387;DHT22;38317;53.084;6.960;2023-07-02T04:30:25;13.40;99.90
52387;DHT22;38317;53.084;6.960;2023-07-02T04:32:51;13.40;99.90
52387;DHT22;38317;53.084;6.960;2023-07-02T04:35:18;13.40;99.90
52387;DHT22;38317;53.084;6.960;2023-07-02T04:37:44;13.40;99.90
52387;DHT22;38317;53.084;6.960;2023-07-02T04:40:10;13.40;99.90
52387;DHT22;38317;53.084;6.960;2023-07-02T04:42:41;13.50;99.90
52387;DHT22;38317;53.084;6.960;2023-07-02T04:45:13;13.50;99.90
52387;DHT22;38317;53.084;6.960;2023-07-02T04:47:43;13.50;99.90
52387;DHT22;38317;53.084;6.960;2023-07-02T04:50:09;13.60;99.90
52387;DHT22;38317;53.084;6.960;2023-07-02T04:52:35;13.70;99.90
52387;DHT22;38317;53.084;6.960;2023-07-02T04:55:02;13.70;99.90
52387;DHT22;38317;53.084;6.960;2023-07-02T04:57:28;13.70;99.90
52387;DHT22;38317;53.084;6.960;2023-07-02T04:59:54;13.80;99.90
52387;DHT22;38317;53.084;6.960;2023-07-02T05:02:20;13.80;99.90
52387;DHT22;38317;53.084;6.960;2023-07-02T05:04:45;13.80;99.90
52387;DHT22;38317;53.084;6.960;2023-07-02T05:07:11;13.80;99.90
52387;DHT22;38317;53.084;6.960;2023-07-02T05:09:37;13.80;99.90
52387;DHT22;38317;53.084;6.960;2023-07-02T05:12:03;13.80;99.90
52387;DHT22;38317;53.084;6.960;2023-07-02T05:14:29;13.80;99.90
52387;DHT22;38317;53.084;6.960;2023-07-02T05:16:54;13.80;99.90
52387;DHT22;38317;53.084;6.960;2023-07-02T05:19:20;13.90;99.90
52387;DHT22;38317;53.084;6.960;2023-07-02T05:21:46;13.90;99.90
52387;DHT22;38317;53.084;6.960;2023-07-02T05:24:12;13.90;99.90
52387;DHT22;38317;53.084;6.960;2023-07-02T05:26:37;14.00;99.90
52387;DHT22;38317;53.084;6.960;2023-07-02T05:29:03;14.00;99.90
52387;DHT22;38317;53.084;6.960;2023-07-02T05:31:30;14.00;99.90
52387;DHT22;38317;53.084;6.960;2023-07-02T05:33:56;14.10;99.90
52387;DHT22;38317;53.084;6.960;2023-07-02T05:36:22;14.10;99.90
52387;DHT22;38317;53.084;6.960;2023-07-02T05:38:48;14.20;99.90
52387;DHT22;38317;53.084;6.960;2023-07-02T05:41:20;14.20;99.90
52387;DHT22;38317;53.084;6.960;2023-07-02T05:43:47;14.30;99.90
52387;DHT22;38317;53.084;6.960;2023-07-02T05:46:12;14.40;99.90
52387;DHT22;38317;53.084;6.960;2023-07-02T05:48:40;14.40;99.90
52387;DHT22;38317;53.084;6.960;2023-07-02T05:51:06;14.50;99.90
52387;DHT22;38317;53.084;6.960;2023-07-02T05:53:31;14.50;99.90
52387;DHT22;38317;53.084;6.960;2023-07-02T05:55:57;14.60;99.90
52387;DHT22;38317;53.084;6.960;2023-07-02T05:58:23;14.60;99.90
52387;DHT22;38317;53.084;6.960;2023-07-02T06:00:48;14.70;99.90
52387;DHT22;38317;53.084;6.960;2023-07-02T06:03:20;14.70;99.90
52387;DHT22;38317;53.084;6.960;2023-07-02T06:05:49;14.80;99.90
52387;DHT22;38317;53.084;6.960;2023-07-02T06:08:16;14.90;99.90
52387;DHT22;38317;53.084;6.960;2023-07-02T06:10:43;14.90;99.90
52387;DHT22;38317;53.084;6.960;2023-07-02T06:13:09;15.00;99.90
52387;DHT22;38317;53.084;6.960;2023-07-02T06:15:35;15.10;99.90
52387;DHT22;38317;53.084;6.960;2023-07-02T06:18:00;15.20;99.90
52387;DHT22;38317;53.084;6.960;2023-07-02T06:20:26;15.30;99.90
52387;DHT22;38317;53.084;6.960;2023-07-02T06:22:52;15.40;99.90
52387;DHT22;38317;53.084;6.960;2023-07-02T06:25:18;15.50;99.90
52387;DHT22;38317;53.084;6.960;2023-07-02T06:27:43;15.60;99.90
52387;DHT22;38317;53.084;6.960;2023-07-02T06:30:09;15.70;99.90
52387;DHT22;38317;53.084;6.960;2023-07-02T06:32:36;15.70;99.90
52387;DHT22;38317;53.084;6.960;2023-07-02T06:35:02;15.80;99.90
52387;DHT22;38317;53.084;6.960;2023-07-02T06:37:28;15.80;99.90
52387;DHT22;38317;53.084;6.960;2023-07-02T06:39:54;15.80;99.90
52387;DHT22;38317;53.084;6.960;2023-07-02T06:42:21;15.70;99.90
52387;DHT22;38317;53.084;6.960;2023-07-02T06:44:46;15.70;99.90
52387;DHT22;38317;53.084;6.960;2023-07-02T06:47:12;15.60;99.90
52387;DHT22;38317;53.084;6.960;2023-07-02T06:49:38;15.70;99.90
52387;DHT22;38317;53.084;6.960;2023-07-02T06:52:04;15.80;99.90
52387;DHT22;38317;53.084;6.960;2023-07-02T06:54:29;15.80;99.90
52387;DHT22;38317;53.084;6.960;2023-07-02T06:56:55;15.80;99.90
52387;DHT22;38317;53.084;6.960;2023-07-02T06:59:22;15.90;99.90
52387;DHT22;38317;53.084;6.960;2023-07-02T07:01:48;16.00;99.90
52387;DHT22;38317;53.084;6.960;2023-07-02T07:04:14;16.00;99.90
52387;DHT22;38317;53.084;6.960;2023-07-02T07:06:41;16.10;99.90
52387;DHT22;38317;53.084;6.960;2023-07-02T07:09:06;16.30;99.90
52387;DHT22;38317;53.084;6.960;2023-07-02T07:11:32;16.20;99.90
52387;DHT22;38317;53.084;6.960;2023-07-02T07:14:01;16.20;99.90
52387;DHT22;38317;53.084;6.960;2023-07-02T07:16:29;17.20;99.90
52387;DHT22;38317;53.084;6.960;2023-07-02T07:18:55;16.40;99.90
52387;DHT22;38317;53.084;6.960;2023-07-02T07:21:21;16.40;99.90
52387;DHT22;38317;53.084;6.960;2023-07-02T07:23:48;16.60;99.90
52387;DHT22;38317;53.084;6.960;2023-07-02T07:26:14;16.60;99.90
52387;DHT22;38317;53.084;6.960;2023-07-02T07:28:40;16.70;99.90
52387;DHT22;38317;53.084;6.960;2023-07-02T07:31:08;16.70;99.90
52387;DHT22;38317;53.084;6.960;2023-07-02T07:33:34;16.80;99.90
52387;DHT22;38317;53.084;6.960;2023-07-02T07:36:03;16.90;99.90
52387;DHT22;38317;53.084;6.960;2023-07-02T07:38:28;16.90;99.90
52387;DHT22;38317;53.084;6.960;2023-07-02T07:40:54;17.00;99.90
52387;DHT22;38317;53.084;6.960;2023-07-02T07:43:20;17.10;99.90
52387;DHT22;38317;53.084;6.960;2023-07-02T07:45:46;17.20;99.90
52387;DHT22;38317;53.084;6.960;2023-07-02T07:48:12;17.30;99.90
52387;DHT22;38317;53.084;6.960;2023-07-02T07:50:37;17.40;99.90
52387;DHT22;38317;53.084;6.960;2023-07-02T07:53:03;17.40;99.90
52387;DHT22;38317;53.084;6.960;2023-07-02T07:55:29;17.60;99.90
52387;DHT22;38317;53.084;6.960;2023-07-02T07:57:54;17.60;99.90
52387;DHT22;38317;53.084;6.960;2023-07-02T08:00:20;17.90;99.90
52387;DHT22;38317;53.084;6.960;2023-07-02T08:02:46;18.10;99.90
52387;DHT22;38317;53.084;6.960;2023-07-02T08:05:12;18.40;99.90
52387;DHT22;38317;53.084;6.960;2023-07-02T08:07:39;18.50;99.90
52387;DHT22;38317;53.084;6.960;2023-07-02T08:10:06;18.60;99.90
52387;DHT22;38317;53.084;6.960;2023-07-02T08:12:33;18.70;99.90
52387;DHT22;38317;53.084;6.960;2023-07-02T08:14:59;18.70;99.90
52387;DHT22;38317;53.084;6.960;2023-07-02T08:17:25;18.80;99.90
52387;DHT22;38317;53.084;6.960;2023-07-02T08:19:51;19.00;99.90
52387;DHT22;38317;53.084;6.960;2023-07-02T08:22:17;19.20;99.90
52387;DHT22;38317;53.084;6.960;2023-07-02T08:24:43;19.40;99.90
52387;DHT22;38317;53.084;6.960;2023-07-02T08:27:09;19.60;99.90
52387;DHT22;38317;53.084;6.960;2023-07-02T08:29:35;19.40;99.90
52387;DHT22;38317;53.084;6.960;2023-07-02T08:32:01;19.20;99.90
52387;DHT22;38317;53.084;6.960;2023-07-02T08:34:27;19.20;99.90
52387;DHT22;38317;53.084;6.960;2023-07-02T08:36:53;19.40;99.90
52387;DHT22;38317;53.084;6.960;2023-07-02T08:39:19;19.50;99.90
52387;DHT22;38317;53.084;6.960;2023-07-02T08:41:45;19.40;99.90
52387;DHT22;38317;53.084;6.960;2023-07-02T08:44:12;19.20;99.90
52387;DHT22;38317;53.084;6.960;2023-07-02T08:46:42;19.00;99.90
52387;DHT22;38317;53.084;6.960;2023-07-02T08:49:08;18.80;99.90
52387;DHT22;38317;53.084;6.960;2023-07-02T08:51:35;18.60;99.90
52387;DHT22;38317;53.084;6.960;2023-07-02T08:54:01;18.40;99.90
52387;DHT22;38317;53.084;6.960;2023-07-02T08:56:28;18.40;99.90
52387;DHT22;38317;53.084;6.960;2023-07-02T08:58:54;18.30;99.90
52387;DHT22;38317;53.084;6.960;2023-07-02T09:01:20;18.20;99.90
52387;DHT22;38317;53.084;6.960;2023-07-02T09:03:45;18.10;99.90
52387;DHT22;38317;53.084;6.960;2023-07-02T09:06:12;17.90;99.90
52387;DHT22;38317;53.084;6.960;2023-07-02T09:08:38;17.80;99.90
52387;DHT22;38317;53.084;6.960;2023-07-02T09:13:54;17.70;99.90
52387;DHT22;38317;53.084;6.960;2023-07-02T09:16:32;17.80;99.90
52387;DHT22;38317;53.084;6.960;2023-07-02T09:19:06;17.80;99.90
52387;DHT22;38317;53.084;6.960;2023-07-02T09:24:23;17.90;99.90
52387;DHT22;38317;53.084;6.960;2023-07-02T09:26:51;17.80;99.90
52387;DHT22;38317;53.084;6.960;2023-07-02T09:29:25;17.70;99.90
52387;DHT22;38317;53.084;6.960;2023-07-02T09:31:59;17.60;99.90
52387;DHT22;38317;53.084;6.960;2023-07-02T09:34:30;17.60;99.90
52387;DHT22;38317;53.084;6.960;2023-07-02T09:36:57;17.60;99.90
52387;DHT22;38317;53.084;6.960;2023-07-02T09:39:31;17.60;99.90
52387;DHT22;38317;53.084;6.960;2023-07-02T09:41:58;17.60;99.90
52387;DHT22;38317;53.084;6.960;2023-07-02T09:44:32;17.60;99.90
52387;DHT22;38317;53.084;6.960;2023-07-02T09:47:03;17.50;99.90
52387;DHT22;38317;53.084;6.960;2023-07-02T09:49:41;17.60;99.90
52387;DHT22;38317;53.084;6.960;2023-07-02T09:52:10;17.60;99.90
52387;DHT22;38317;53.084;6.960;2023-07-02T09:54:37;17.70;99.90
52387;DHT22;38317;53.084;6.960;2023-07-02T09:57:04;17.70;99.90
52387;DHT22;38317;53.084;6.960;2023-07-02T09:59:30;17.80;99.90
52387;DHT22;38317;53.084;6.960;2023-07-02T10:01:56;18.00;99.90
52387;DHT22;38317;53.084;6.960;2023-07-02T10:04:23;18.30;99.90
52387;DHT22;38317;53.084;6.960;2023-07-02T10:06:53;18.50;99.90
52387;DHT22;38317;53.084;6.960;2023-07-02T10:12:00;18.50;99.90
52387;DHT22;38317;53.084;6.960;2023-07-02T10:14:26;18.60;99.90
52387;DHT22;38317;53.084;6.960;2023-07-02T10:16:56;18.60;99.90
52387;DHT22;38317;53.084;6.960;2023-07-02T10:19:22;18.60;99.90
52387;DHT22;38317;53.084;6.960;2023-07-02T10:22:04;18.70;99.90
52387;DHT22;38317;53.084;6.960;2023-07-02T10:24:30;19.10;99.90
52387;DHT22;38317;53.084;6.960;2023-07-02T10:26:58;19.30;99.90
52387;DHT22;38317;53.084;6.960;2023-07-02T10:29:26;19.40;99.90
52387;DHT22;38317;53.084;6.960;2023-07-02T10:31:55;19.40;99.90
52387;DHT22;38317;53.084;6.960;2023-07-02T10:34:35;19.30;99.90
52387;DHT22;38317;53.084;6.960;2023-07-02T10:37:02;19.20;99.90
52387;DHT22;38317;53.084;6.960;2023-07-02T10:39:31;19.20;99.90
52387;DHT22;38317;53.084;6.960;2023-07-02T10:42:23;19.50;99.90
52387;DHT22;38317;53.084;6.960;2023-07-02T10:44:53;19.90;99.90
52387;DHT22;38317;53.084;6.960;2023-07-02T10:47:19;20.00;99.90
52387;DHT22;38317;53.084;6.960;2023-07-02T10:49:45;19.80;99.90
52387;DHT22;38317;53.084;6.960;2023-07-02T10:52:11;19.70;99.90
52387;DHT22;38317;53.084;6.960;2023-07-02T10:57:07;19.20;99.90
52387;DHT22;38317;53.084;6.960;2023-07-02T10:59:33;19.10;99.90
52387;DHT22;38317;53.084;6.960;2023-07-02T11:01:59;19.20;99.90
52387;DHT22;38317;53.084;6.960;2023-07-02T11:04:28;19.50;99.90
52387;DHT22;38317;53.084;6.960;2023-07-02T11:06:54;19.50;99.90
52387;DHT22;38317;53.084;6.960;2023-07-02T11:09:20;19.30;99.90
52387;DHT22;38317;53.084;6.960;2023-07-02T11:11:57;19.20;99.90
52387;DHT22;38317;53.084;6.960;2023-07-02T11:14:32;19.20;99.90
52387;DHT22;38317;53.084;6.960;2023-07-02T11:17:05;19.20;99.90
52387;DHT22;38317;53.084;6.960;2023-07-02T11:19:35;19.20;99.90
52387;DHT22;38317;53.084;6.960;2023-07-02T11:22:01;19.20;99.90
52387;DHT22;38317;53.084;6.960;2023-07-02T11:24:36;19.20;99.90
52387;DHT22;38317;53.084;6.960;2023-07-02T11:27:03;19.20;99.90
52387;DHT22;38317;53.084;6.960;2023-07-02T11:29:31;19.20;99.90
52387;DHT22;38317;53.084;6.960;2023-07-02T11:32:10;19.20;99.90
52387;DHT22;38317;53.084;6.960;2023-07-02T11:34:37;19.40;99.90
52387;DHT22;38317;53.084;6.960;2023-07-02T11:37:04;19.70;99.90
52387;DHT22;38317;53.084;6.960;2023-07-02T11:39:31;19.90;99.90
52387;DHT22;38317;53.084;6.960;2023-07-02T11:41:56;19.80;99.90
52387;DHT22;38317;53.084;6.960;2023-07-02T11:44:22;19.60;99.90
52387;DHT22;38317;53.084;6.960;2023-07-02T11:46:48;19.50;99.90
52387;DHT22;38317;53.084;6.960;2023-07-02T11:49:14;19.30;99.90
52387;DHT22;38317;53.084;6.960;2023-07-02T11:51:41;19.30;99.90
52387;DHT22;38317;53.084;6.960;2023-07-02T11:54:07;19.10;99.90
52387;DHT22;38317;53.084;6.960;2023-07-02T11:56:33;19.10;99.90
52387;DHT22;38317;53.084;6.960;2023-07-02T11:58:59;19.20;99.90
52387;DHT22;38317;53.084;6.960;2023-07-02T12:01:25;19.40;99.90
52387;DHT22;38317;53.084;6.960;2023-07-02T12:03:51;19.80;99.90
52387;DHT22;38317;53.084;6.960;2023-07-02T12:06:17;20.10;99.90
52387;DHT22;38317;53.084;6.960;2023-07-02T12:08:42;20.10;99.90
52387;DHT22;38317;53.084;6.960;2023-07-02T12:11:08;19.80;99.90
52387;DHT22;38317;53.084;6.960;2023-07-02T12:13:34;19.80;99.90
52387;DHT22;38317;53.084;6.960;2023-07-02T12:16:00;20.00;99.90
52387;DHT22;38317;53.084;6.960;2023-07-02T12:18:26;20.30;99.90
52387;DHT22;38317;53.084;6.960;2023-07-02T12:20:52;20.60;99.90
52387;DHT22;38317;53.084;6.960;2023-07-02T12:23:18;20.60;99.90
52387;DHT22;38317;53.084;6.960;2023-07-02T12:25:43;20.30;99.90
52387;DHT22;38317;53.084;6.960;2023-07-02T12:28:09;20.00;99.90
52387;DHT22;38317;53.084;6.960;2023-07-02T12:30:35;19.70;99.90
52387;DHT22;38317;53.084;6.960;2023-07-02T12:33:01;19.60;99.90
52387;DHT22;38317;53.084;6.960;2023-07-02T12:35:26;19.50;99.90
52387;DHT22;38317;53.084;6.960;2023-07-02T12:37:53;19.40;99.90
52387;DHT22;38317;53.084;6.960;2023-07-02T12:40:19;19.70;99.90
52387;DHT22;38317;53.084;6.960;2023-07-02T12:42:46;19.80;99.90
52387;DHT22;38317;53.084;6.960;2023-07-02T12:45:13;19.80;99.90
52387;DHT22;38317;53.084;6.960;2023-07-02T12:47:40;19.60;99.90
52387;DHT22;38317;53.084;6.960;2023-07-02T12:50:07;19.40;99.90
52387;DHT22;38317;53.084;6.960;2023-07-02T12:52:33;19.30;99.90
52387;DHT22;38317;53.084;6.960;2023-07-02T12:54:59;19.20;99.90
52387;DHT22;38317;53.084;6.960;2023-07-02T12:57:25;19.10;99.90
52387;DHT22;38317;53.084;6.960;2023-07-02T12:59:53;19.00;99.90
52387;DHT22;38317;53.084;6.960;2023-07-02T13:02:19;19.00;99.90
52387;DHT22;38317;53.084;6.960;2023-07-02T13:04:44;19.20;99.90
52387;DHT22;38317;53.084;6.960;2023-07-02T13:07:10;19.50;99.90
52387;DHT22;38317;53.084;6.960;2023-07-02T13:09:36;19.50;99.90
52387;DHT22;38317;53.084;6.960;2023-07-02T13:12:02;19.50;99.90
52387;DHT22;38317;53.084;6.960;2023-07-02T13:14:28;19.50;99.90
52387;DHT22;38317;53.084;6.960;2023-07-02T13:16:54;19.60;99.90
52387;DHT22;38317;53.084;6.960;2023-07-02T13:19:19;19.50;99.90
52387;DHT22;38317;53.084;6.960;2023-07-02T13:21:45;19.50;99.90
52387;DHT22;38317;53.084;6.960;2023-07-02T13:24:11;19.60;99.90
52387;DHT22;38317;53.084;6.960;2023-07-02T13:26:37;19.70;99.90
52387;DHT22;38317;53.084;6.960;2023-07-02T13:29:03;19.70;99.90
52387;DHT22;38317;53.084;6.960;2023-07-02T13:31:29;19.60;99.90
52387;DHT22;38317;53.084;6.960;2023-07-02T13:33:55;19.60;99.90
52387;DHT22;38317;53.084;6.960;2023-07-02T13:36:20;19.40;99.90
52387;DHT22;38317;53.084;6.960;2023-07-02T13:38:46;19.20;99.90
52387;DHT22;38317;53.084;6.960;2023-07-02T13:41:12;19.10;99.90
52387;DHT22;38317;53.084;6.960;2023-07-02T13:43:37;19.10;99.90
52387;DHT22;38317;53.084;6.960;2023-07-02T13:46:04;19.00;99.90
52387;DHT22;38317;53.084;6.960;2023-07-02T13:48:30;19.00;99.90
52387;DHT22;38317;53.084;6.960;2023-07-02T13:50:57;19.00;99.90
52387;DHT22;38317;53.084;6.960;2023-07-02T13:53:22;18.90;99.90
52387;DHT22;38317;53.084;6.960;2023-07-02T13:55:48;18.80;99.90
52387;DHT22;38317;53.084;6.960;2023-07-02T13:58:14;18.80;99.90
52387;DHT22;38317;53.084;6.960;2023-07-02T14:00:40;18.80;99.90
52387;DHT22;38317;53.084;6.960;2023-07-02T14:03:06;18.90;99.90
52387;DHT22;38317;53.084;6.960;2023-07-02T14:05:32;19.10;99.90
52387;DHT22;38317;53.084;6.960;2023-07-02T14:07:58;19.20;99.90
52387;DHT22;38317;53.084;6.960;2023-07-02T14:10:24;19.20;99.90
52387;DHT22;38317;53.084;6.960;2023-07-02T14:12:49;19.00;99.90
52387;DHT22;38317;53.084;6.960;2023-07-02T14:15:15;19.00;99.90
52387;DHT22;38317;53.084;6.960;2023-07-02T14:17:41;18.90;99.90
52387;DHT22;38317;53.084;6.960;2023-07-02T14:20:09;18.80;99.90
52387;DHT22;38317;53.084;6.960;2023-07-02T14:22:35;18.70;99.90
52387;DHT22;38317;53.084;6.960;2023-07-02T14:25:01;18.80;99.90
52387;DHT22;38317;53.084;6.960;2023-07-02T14:27:27;18.80;99.90
52387;DHT22;38317;53.084;6.960;2023-07-02T14:29:52;18.80;99.90
52387;DHT22;38317;53.084;6.960;2023-07-02T14:32:18;18.90;99.90
52387;DHT22;38317;53.084;6.960;2023-07-02T14:34:44;18.90;99.90
52387;DHT22;38317;53.084;6.960;2023-07-02T14:37:10;18.90;99.90
52387;DHT22;38317;53.084;6.960;2023-07-02T14:39:36;18.90;99.90
52387;DHT22;38317;53.084;6.960;2023-07-02T14:42:02;18.80;99.90
52387;DHT22;38317;53.084;6.960;2023-07-02T14:44:27;18.70;99.90
52387;DHT22;38317;53.084;6.960;2023-07-02T14:46:53;18.70;99.90
52387;DHT22;38317;53.084;6.960;2023-07-02T14:49:19;18.70;99.90
52387;DHT22;38317;53.084;6.960;2023-07-02T14:51:45;18.60;99.90
52387;DHT22;38317;53.084;6.960;2023-07-02T14:54:12;18.60;99.90
52387;DHT22;38317;53.084;6.960;2023-07-02T14:56:37;18.50;99.90
52387;DHT22;38317;53.084;6.960;2023-07-02T14:59:04;18.40;99.90
52387;DHT22;38317;53.084;6.960;2023-07-02T15:01:31;18.40;99.90
52387;DHT22;38317;53.084;6.960;2023-07-02T15:03:57;18.40;99.90
52387;DHT22;38317;53.084;6.960;2023-07-02T15:06:23;18.40;99.90
52387;DHT22;38317;53.084;6.960;2023-07-02T15:08:49;18.40;99.90
52387;DHT22;38317;53.084;6.960;2023-07-02T15:11:15;18.30;99.90
52387;DHT22;38317;53.084;6.960;2023-07-02T15:13:42;18.30;99.90
52387;DHT22;38317;53.084;6.960;2023-07-02T15:16:09;18.30;99.90
52387;DHT22;38317;53.084;6.960;2023-07-02T15:18:35;18.60;99.90
52387;DHT22;38317;53.084;6.960;2023-07-02T15:21:00;18.80;99.90
52387;DHT22;38317;53.084;6.960;2023-07-02T15:23:27;19.10;99.90
52387;DHT22;38317;53.084;6.960;2023-07-02T15:25:55;19.30;99.90
52387;DHT22;38317;53.084;6.960;2023-07-02T15:28:21;19.60;99.90
52387;DHT22;38317;53.084;6.960;2023-07-02T15:30:52;19.80;99.90
52387;DHT22;38317;53.084;6.960;2023-07-02T15:33:18;19.80;99.90
52387;DHT22;38317;53.084;6.960;2023-07-02T15:35:44;19.70;99.90
52387;DHT22;38317;53.084;6.960;2023-07-02T15:38:09;19.50;99.90
52387;DHT22;38317;53.084;6.960;2023-07-02T15:40:35;19.40;99.90